Time;durP1;ratioP1;P1;durP2;ratioP2;P2;SDS_P1;SDS_P2;PMS_P1;PMS_P2;Temp;Humidity;BMP_temperature;BMP_pressure;BME280_temperature;BME280_humidity;BME280_pressure;Samples;Min_cycle;Max_cycle;Signal;HPM_P1;HPM_P2
2023/03/23 00:02:27;;;;;;;9.38;6.50;;;9.60;99.90;;;;;;5075267;28;20392;-56
2023/03/23 00:04:54;;;;;;;12.35;7.20;;;9.40;99.90;;;;;;5074799;28;20392;-56
2023/03/23 00:07:27;;;;;;;16.58;9.18;;;9.50;99.90;;;;;;5074607;28;20302;-56
2023/03/23 00:09:53;;;;;;;12.93;8.13;;;9.50;99.90;;;;;;5074829;28;20039;-57
2023/03/23 00:12:32;;;;;;;15.10;9.68;;;9.50;99.90;;;;;;5075483;28;20664;-57
2023/03/23 00:15:06;;;;;;;14.43;10.30;;;10.30;99.90;;;;;;5075214;28;20040;-57
2023/03/23 00:17:35;;;;;;;17.50;11.30;;;9.60;99.90;;;;;;5076439;28;20066;-57
2023/03/23 00:20:05;;;;;;;13.02;9.50;;;9.50;99.90;;;;;;5076615;28;20071;-56
2023/03/23 00:22:31;;;;;;;15.00;9.90;;;9.70;99.90;;;;;;5075926;28;20040;-56
2023/03/23 00:24:56;;;;;;;22.77;12.25;;;9.60;99.90;;;;;;5074608;28;20059;-56
2023/03/23 00:27:23;;;;;;;18.15;13.48;;;9.80;99.90;;;;;;5075546;28;20040;-56
2023/03/23 00:29:52;;;;;;;19.92;14.32;;;9.80;99.90;;;;;;5076029;28;20136;-55
2023/03/23 00:32:20;;;;;;;19.98;14.48;;;9.90;99.90;;;;;;5076494;28;20064;-56
2023/03/23 00:34:48;;;;;;;18.85;14.35;;;9.80;99.90;;;;;;5074655;28;20048;-55
2023/03/23 00:37:16;;;;;;;20.67;16.65;;;9.60;99.90;;;;;;5075440;28;20075;-55
2023/03/23 00:39:44;;;;;;;22.52;16.67;;;9.80;99.90;;;;;;5075075;28;20051;-56
2023/03/23 00:42:10;;;;;;;24.88;17.73;;;9.80;99.90;;;;;;5075423;28;20449;-56
2023/03/23 00:44:36;;;;;;;22.77;17.67;;;9.90;99.90;;;;;;5075344;28;20059;-56
2023/03/23 00:47:02;;;;;;;20.17;18.05;;;9.90;99.90;;;;;;5075061;28;20032;-56
2023/03/23 00:49:29;;;;;;;24.35;17.67;;;10.00;99.90;;;;;;5073964;28;20051;-56
2023/03/23 00:51:57;;;;;;;18.90;15.48;;;10.00;99.90;;;;;;5074240;28;20120;-56
2023/03/23 00:54:24;;;;;;;17.60;11.10;;;10.00;99.90;;;;;;5076019;28;20117;-56
2023/03/23 00:56:51;;;;;;;10.55;6.50;;;10.20;99.90;;;;;;5075481;28;20101;-56
2023/03/23 00:59:17;;;;;;;8.38;3.85;;;10.10;99.90;;;;;;5073991;28;20075;-56
2023/03/23 01:01:44;;;;;;;8.48;3.85;;;10.10;99.90;;;;;;5073833;28;20043;-56
2023/03/23 01:04:11;;;;;;;6.70;3.30;;;9.90;99.90;;;;;;5073623;28;20048;-56
2023/03/23 01:06:39;;;;;;;6.82;3.20;;;9.90;99.90;;;;;;5073906;28;20164;-56
2023/03/23 01:09:16;;;;;;;9.05;3.42;;;9.80;99.90;;;;;;5074810;28;20032;-56
2023/03/23 01:11:46;;;;;;;5.45;2.90;;;10.00;99.90;;;;;;5073184;28;20467;-56
2023/03/23 01:14:13;;;;;;;7.03;3.08;;;9.90;99.90;;;;;;5073801;28;20036;-56
2023/03/23 01:16:39;;;;;;;7.25;3.42;;;9.90;99.90;;;;;;5075814;28;20039;-56
2023/03/23 01:19:05;;;;;;;7.18;4.10;;;9.40;99.90;;;;;;5074422;28;20128;-56
2023/03/23 01:21:31;;;;;;;6.82;3.40;;;9.80;99.90;;;;;;5073896;28;20138;-56
2023/03/23 01:23:57;;;;;;;9.90;4.35;;;10.00;99.90;;;;;;5074078;28;20100;-56
2023/03/23 01:26:26;;;;;;;11.50;5.57;;;9.80;99.90;;;;;;5074708;28;20032;-56
2023/03/23 01:28:52;;;;;;;9.93;6.10;;;9.80;99.90;;;;;;5074796;28;20055;-56
2023/03/23 01:31:24;;;;;;;10.30;6.03;;;10.00;99.90;;;;;;5074039;28;20458;-56
2023/03/23 01:33:51;;;;;;;12.55;6.32;;;9.90;99.90;;;;;;5073432;28;20123;-56
2023/03/23 01:36:19;;;;;;;12.40;6.93;;;10.00;99.90;;;;;;5074354;28;20078;-56
2023/03/23 01:38:46;;;;;;;12.70;7.55;;;9.90;99.90;;;;;;5073925;28;20083;-56
2023/03/23 01:41:13;;;;;;;13.48;7.88;;;10.20;99.90;;;;;;5074949;28;20044;-56
2023/03/23 01:44:01;;;;;;;18.10;9.02;;;10.10;99.90;;;;;;5074969;28;20105;-56
2023/03/23 01:46:28;;;;;;;12.65;7.80;;;10.20;99.90;;;;;;5072528;28;20039;-56
2023/03/23 01:48:57;;;;;;;13.00;8.85;;;10.10;99.90;;;;;;5074099;28;20430;-56
2023/03/23 01:51:24;;;;;;;11.45;7.93;;;10.30;99.90;;;;;;5074311;28;20127;-57
2023/03/23 01:53:55;;;;;;;14.93;7.40;;;10.40;99.90;;;;;;5074559;28;21975;-56
2023/03/23 01:56:26;;;;;;;14.17;7.10;;;10.20;99.90;;;;;;5074455;28;20047;-57
2023/03/23 01:58:56;;;;;;;11.07;7.30;;;10.30;99.90;;;;;;5073111;28;20048;-57
2023/03/23 02:01:24;;;;;;;13.40;7.00;;;10.40;99.90;;;;;;5074594;28;20488;-56
2023/03/23 02:03:52;;;;;;;14.80;7.25;;;10.50;99.90;;;;;;5073156;28;20135;-56
2023/03/23 02:06:18;;;;;;;12.88;7.22;;;10.50;99.90;;;;;;5072688;28;20392;-57
2023/03/23 02:08:44;;;;;;;11.45;6.20;;;10.40;99.90;;;;;;5072422;28;20051;-57
2023/03/23 02:11:18;;;;;;;13.73;7.18;;;10.60;99.90;;;;;;5072542;28;20035;-57
2023/03/23 02:13:45;;;;;;;11.68;6.13;;;10.60;99.90;;;;;;5070408;28;20137;-56
2023/03/23 02:16:21;;;;;;;12.30;6.50;;;10.60;99.90;;;;;;5072233;28;20069;-56
2023/03/23 02:18:57;;;;;;;13.98;6.40;;;10.60;99.90;;;;;;5072003;28;20040;-57
2023/03/23 02:21:26;;;;;;;11.73;5.50;;;10.40;99.90;;;;;;5072858;28;20035;-56
2023/03/23 02:23:55;;;;;;;11.65;5.10;;;10.60;99.90;;;;;;5071601;28;20606;-57
2023/03/23 02:26:43;;;;;;;9.05;5.15;;;10.80;99.90;;;;;;5071733;28;20040;-57
2023/03/23 02:29:24;;;;;;;8.48;5.50;;;10.80;99.90;;;;;;5071088;28;20497;-57
2023/03/23 02:32:12;;;;;;;9.70;5.53;;;10.80;99.90;;;;;;5072553;28;20381;-56
2023/03/23 02:35:08;;;;;;;10.85;4.88;;;10.60;99.90;;;;;;5071577;28;20093;-57
2023/03/23 02:37:50;;;;;;;11.18;6.53;;;10.40;99.90;;;;;;5070330;28;20055;-57
2023/03/23 02:40:21;;;;;;;10.77;5.47;;;10.70;99.90;;;;;;5072177;28;20115;-57
2023/03/23 02:42:52;;;;;;;13.02;6.40;;;10.70;99.90;;;;;;5072240;28;20051;-57
2023/03/23 02:45:20;;;;;;;13.38;4.85;;;10.50;99.90;;;;;;5072519;28;20076;-57
2023/03/23 02:47:48;;;;;;;9.30;4.95;;;10.50;99.90;;;;;;5071127;28;20078;-57
2023/03/23 02:50:16;;;;;;;10.43;5.20;;;10.60;99.90;;;;;;5071605;28;20040;-57
2023/03/23 02:52:43;;;;;;;13.82;5.70;;;10.80;99.90;;;;;;5071263;28;20489;-57
2023/03/23 02:55:11;;;;;;;10.63;4.47;;;10.70;99.90;;;;;;5072425;28;20507;-57
2023/03/23 02:57:38;;;;;;;12.43;4.63;;;10.60;99.90;;;;;;5072819;28;20050;-57
2023/03/23 03:00:10;;;;;;;13.45;5.20;;;10.60;99.90;;;;;;5071533;28;20078;-57
2023/03/23 03:02:44;;;;;;;8.40;4.53;;;10.70;99.90;;;;;;5072057;28;20040;-57
2023/03/23 03:05:31;;;;;;;12.13;5.53;;;10.70;99.90;;;;;;5072237;28;20132;-57
2023/03/23 03:08:06;;;;;;;9.63;5.07;;;10.60;99.90;;;;;;5073087;28;20144;-57
2023/03/23 03:10:36;;;;;;;10.40;5.47;;;10.70;99.90;;;;;;5072163;28;20801;-57
2023/03/23 03:13:11;;;;;;;11.18;5.60;;;10.70;99.90;;;;;;5072285;28;20512;-57
2023/03/23 03:15:45;;;;;;;10.85;4.28;;;10.60;99.90;;;;;;5072922;28;20147;-57
2023/03/23 03:18:43;;;;;;;10.15;4.40;;;10.70;99.90;;;;;;5073006;28;20754;-57
2023/03/23 03:21:14;;;;;;;11.93;4.45;;;10.50;99.90;;;;;;5073401;28;20036;-57
2023/03/23 03:23:42;;;;;;;9.70;4.45;;;10.70;99.90;;;;;;5073113;28;20445;-57
2023/03/23 03:26:11;;;;;;;9.85;4.50;;;10.60;99.90;;;;;;5073102;28;20066;-56
2023/03/23 03:28:37;;;;;;;9.55;4.50;;;10.70;99.90;;;;;;5072641;28;20078;-57
2023/03/23 03:31:05;;;;;;;8.07;4.28;;;10.60;99.90;;;;;;5072613;28;20119;-57
2023/03/23 03:33:33;;;;;;;10.60;4.00;;;10.60;99.90;;;;;;5071282;28;20055;-57
2023/03/23 03:36:02;;;;;;;10.25;4.88;;;10.70;99.90;;;;;;5071750;28;20040;-57
2023/03/23 03:38:28;;;;;;;8.68;4.32;;;10.70;99.90;;;;;;5071558;28;20036;-57
2023/03/23 03:40:55;;;;;;;11.07;5.70;;;10.30;99.90;;;;;;5071626;28;20443;-56
2023/03/23 03:43:20;;;;;;;9.32;4.82;;;10.80;99.90;;;;;;5071839;28;20044;-56
2023/03/23 03:45:46;;;;;;;11.13;5.20;;;10.70;99.90;;;;;;5071121;28;20048;-56
2023/03/23 03:48:12;;;;;;;11.57;4.63;;;10.50;99.90;;;;;;5070773;28;20040;-56
2023/03/23 03:50:38;;;;;;;12.05;5.07;;;10.70;99.90;;;;;;5071759;28;20036;-57
2023/03/23 03:53:05;;;;;;;10.40;5.38;;;10.50;99.90;;;;;;5071519;28;20036;-57
2023/03/23 03:55:35;;;;;;;12.23;5.63;;;10.70;99.90;;;;;;5072620;28;20051;-57
2023/03/23 03:58:04;;;;;;;14.57;5.95;;;10.50;99.90;;;;;;5071758;28;20056;-57
2023/03/23 04:00:30;;;;;;;10.80;4.88;;;10.50;99.90;;;;;;5071271;28;20040;-57
2023/03/23 04:02:56;;;;;;;8.75;4.22;;;10.40;99.90;;;;;;5071529;28;20028;-57
2023/03/23 04:05:24;;;;;;;9.40;4.65;;;10.40;99.90;;;;;;5070912;28;20135;-57
2023/03/23 04:07:51;;;;;;;11.52;4.07;;;10.40;99.90;;;;;;5071970;28;20048;-57
2023/03/23 04:10:21;;;;;;;8.30;4.07;;;10.20;99.90;;;;;;5072032;28;20580;-57
2023/03/23 04:12:50;;;;;;;8.18;3.17;;;10.30;99.90;;;;;;5071941;28;20056;-57
2023/03/23 04:15:16;;;;;;;7.95;3.00;;;10.20;99.90;;;;;;5070868;28;20039;-56
2023/03/23 04:17:42;;;;;;;9.05;4.30;;;10.10;99.90;;;;;;5070592;28;20100;-57
2023/03/23 04:20:13;;;;;;;8.13;3.65;;;10.00;99.90;;;;;;5071283;28;20040;-57
2023/03/23 04:22:39;;;;;;;6.97;3.67;;;9.90;99.90;;;;;;5072336;28;20059;-57
2023/03/23 04:25:06;;;;;;;9.68;3.50;;;10.00;99.90;;;;;;5071497;28;20043;-57
2023/03/23 04:27:32;;;;;;;11.00;3.33;;;10.00;99.90;;;;;;5070937;28;20070;-57
2023/03/23 04:29:58;;;;;;;9.13;2.40;;;9.70;99.90;;;;;;5069392;28;20349;-57
2023/03/23 04:32:28;;;;;;;7.22;2.60;;;9.90;99.90;;;;;;5070271;28;20589;-56
2023/03/23 04:35:00;;;;;;;9.07;2.65;;;9.90;99.90;;;;;;5086060;28;20044;-56
2023/03/23 04:37:28;;;;;;;7.88;3.00;;;9.80;99.90;;;;;;5071653;28;20712;-56
2023/03/23 04:40:05;;;;;;;6.65;2.67;;;9.80;99.90;;;;;;5072088;28;20795;-56
2023/03/23 04:42:31;;;;;;;6.57;2.20;;;9.80;99.90;;;;;;5071606;28;20039;-57
2023/03/23 04:44:58;;;;;;;10.40;2.40;;;9.70;99.90;;;;;;5071265;28;21101;-56
2023/03/23 04:47:29;;;;;;;10.93;2.60;;;9.90;99.90;;;;;;5075946;28;20131;-54
2023/03/23 04:49:56;;;;;;;10.88;2.75;;;9.70;99.90;;;;;;5075570;28;20043;-56
2023/03/23 04:52:22;;;;;;;11.60;2.30;;;9.80;99.90;;;;;;5075728;28;20044;-56
2023/03/23 04:54:47;;;;;;;9.00;2.05;;;9.90;99.90;;;;;;5075742;28;20044;-56
2023/03/23 04:57:15;;;;;;;12.40;2.40;;;9.60;99.90;;;;;;5072869;28;20047;-56
2023/03/23 04:59:41;;;;;;;8.55;2.70;;;9.70;99.90;;;;;;5075370;28;20448;-56
2023/03/23 05:02:07;;;;;;;10.13;2.53;;;9.60;99.90;;;;;;5076611;28;20063;-56
2023/03/23 05:04:33;;;;;;;14.02;3.13;;;9.80;99.90;;;;;;5075032;28;20500;-56
2023/03/23 05:06:59;;;;;;;9.13;3.20;;;9.70;99.90;;;;;;5074704;28;20044;-57
2023/03/23 05:09:25;;;;;;;9.13;2.92;;;9.70;99.90;;;;;;5075534;28;20155;-56
2023/03/23 05:11:51;;;;;;;9.95;3.20;;;9.80;99.90;;;;;;5057035;28;20382;-56
2023/03/23 05:14:16;;;;;;;11.00;3.30;;;9.90;99.90;;;;;;5074026;28;20067;-56
2023/03/23 05:16:47;;;;;;;12.35;3.67;;;9.80;99.90;;;;;;5074276;28;20047;-56
2023/03/23 05:19:12;;;;;;;15.18;4.28;;;9.70;99.90;;;;;;5074759;28;20404;-56
2023/03/23 05:21:38;;;;;;;14.13;4.03;;;9.80;99.90;;;;;;5074067;28;20044;-57
2023/03/23 05:24:05;;;;;;;13.60;3.58;;;9.80;99.90;;;;;;5073639;28;20600;-56
2023/03/23 05:26:32;;;;;;;14.68;3.25;;;9.70;99.90;;;;;;5075000;28;20051;-56
2023/03/23 05:28:58;;;;;;;11.68;3.33;;;9.90;99.90;;;;;;5074083;28;20803;-56
2023/03/23 05:31:24;;;;;;;13.77;3.15;;;9.80;99.90;;;;;;5074772;28;20039;-56
2023/03/23 05:33:51;;;;;;;18.73;2.95;;;9.70;99.90;;;;;;5073554;28;20043;-57
2023/03/23 05:36:17;;;;;;;13.65;3.00;;;9.90;99.90;;;;;;5073700;28;20032;-56
2023/03/23 05:38:45;;;;;;;18.70;4.07;;;9.70;99.90;;;;;;5073031;28;22270;-57
2023/03/23 05:41:20;;;;;;;21.80;3.50;;;9.60;99.90;;;;;;5073897;28;20071;-57
2023/03/23 05:43:46;;;;;;;20.88;3.55;;;9.70;99.90;;;;;;5071895;28;20048;-56
2023/03/23 05:46:12;;;;;;;21.85;4.25;;;9.70;99.90;;;;;;5072694;28;20055;-57
2023/03/23 05:48:38;;;;;;;21.90;3.60;;;9.60;99.90;;;;;;5072904;28;20051;-57
2023/03/23 05:51:04;;;;;;;18.23;4.95;;;9.80;99.90;;;;;;5073432;28;20036;-57
2023/03/23 05:53:30;;;;;;;18.67;3.90;;;9.70;99.90;;;;;;5074440;28;20044;-57
2023/03/23 05:56:03;;;;;;;19.70;3.90;;;9.60;99.90;;;;;;5072806;28;20141;-56
2023/03/23 05:58:29;;;;;;;19.13;4.10;;;9.50;99.90;;;;;;5073853;28;20040;-57
2023/03/23 06:00:55;;;;;;;17.38;3.20;;;9.70;99.90;;;;;;5073363;28;20105;-57
2023/03/23 06:03:22;;;;;;;25.08;4.93;;;9.60;99.90;;;;;;5073456;28;20051;-57
2023/03/23 06:05:48;;;;;;;28.13;5.63;;;9.90;99.90;;;;;;5073960;28;20046;-57
2023/03/23 06:08:14;;;;;;;23.30;4.32;;;9.80;99.90;;;;;;5074458;28;20058;-57
2023/03/23 06:10:40;;;;;;;19.63;3.75;;;9.90;99.90;;;;;;5073802;28;20338;-56
2023/03/23 06:13:06;;;;;;;20.85;4.15;;;10.10;99.90;;;;;;5073063;28;20043;-57
2023/03/23 06:15:32;;;;;;;18.15;3.47;;;9.80;99.90;;;;;;5074922;28;20322;-57
2023/03/23 06:17:59;;;;;;;20.52;3.63;;;10.10;99.90;;;;;;5072540;28;20048;-56
2023/03/23 06:20:25;;;;;;;29.95;4.85;;;9.80;99.90;;;;;;5073086;28;20055;-57
2023/03/23 06:22:51;;;;;;;20.13;3.85;;;9.90;99.90;;;;;;5074654;28;20040;-57
2023/03/23 06:25:18;;;;;;;26.98;5.07;;;9.90;99.90;;;;;;5074281;28;20509;-57
2023/03/23 06:27:45;;;;;;;21.98;4.28;;;10.00;99.90;;;;;;5070948;28;20051;-57
2023/03/23 06:30:12;;;;;;;20.80;4.32;;;9.90;99.90;;;;;;5070169;28;20515;-57
2023/03/23 06:32:38;;;;;;;14.52;2.97;;;9.90;99.90;;;;;;5067604;28;20047;-55
2023/03/23 06:35:06;;;;;;;18.05;3.55;;;9.60;99.90;;;;;;5070816;28;20040;-56
2023/03/23 06:37:31;;;;;;;19.67;3.22;;;9.60;99.90;;;;;;5069951;28;20170;-56
2023/03/23 06:39:58;;;;;;;12.35;2.10;;;9.40;99.90;;;;;;5069836;28;20047;-56
2023/03/23 06:42:24;;;;;;;15.55;3.38;;;9.60;99.90;;;;;;5070440;28;20097;-56
2023/03/23 06:44:51;;;;;;;16.42;3.20;;;9.30;99.90;;;;;;5073332;28;21052;-56
2023/03/23 06:47:17;;;;;;;11.25;2.10;;;9.40;99.90;;;;;;5072990;28;20032;-56
2023/03/23 06:49:42;;;;;;;16.85;2.65;;;9.20;99.90;;;;;;5087743;28;20109;-56
2023/03/23 06:52:08;;;;;;;15.35;2.10;;;9.30;99.90;;;;;;5072901;28;20061;-56
2023/03/23 06:54:34;;;;;;;10.45;1.95;;;9.20;99.90;;;;;;5073311;28;20355;-56
2023/03/23 06:57:00;;;;;;;13.48;2.75;;;9.30;99.90;;;;;;5072771;28;20683;-56
2023/03/23 06:59:26;;;;;;;19.38;3.40;;;9.20;99.90;;;;;;5072104;28;20084;-56
2023/03/23 07:01:52;;;;;;;20.17;2.55;;;9.40;99.90;;;;;;5071924;28;20453;-56
2023/03/23 07:04:18;;;;;;;16.38;3.65;;;9.20;99.90;;;;;;5072422;28;20086;-56
2023/03/23 07:06:44;;;;;;;14.73;3.30;;;9.20;99.90;;;;;;5071975;28;20051;-56
2023/03/23 07:09:09;;;;;;;21.25;3.42;;;9.40;99.90;;;;;;5070762;28;20512;-56
2023/03/23 07:11:35;;;;;;;19.30;3.50;;;9.30;99.90;;;;;;5072183;28;20071;-56
2023/03/23 07:14:02;;;;;;;22.63;3.75;;;9.50;99.90;;;;;;5071912;28;20051;-56
2023/03/23 07:16:28;;;;;;;21.48;3.35;;;9.50;99.90;;;;;;5071540;28;20047;-56
2023/03/23 07:18:54;;;;;;;27.75;3.92;;;9.50;99.90;;;;;;5069587;28;20036;-56
2023/03/23 07:21:19;;;;;;;21.88;4.63;;;9.70;99.90;;;;;;5072440;28;20119;-56
2023/03/23 07:23:46;;;;;;;29.77;4.35;;;9.80;99.90;;;;;;5070598;28;20056;-56
2023/03/23 07:26:12;;;;;;;26.85;4.53;;;10.00;99.90;;;;;;5073309;28;20051;-56
2023/03/23 07:28:39;;;;;;;24.90;5.28;;;10.00;99.90;;;;;;5073684;28;20298;-56
2023/03/23 07:31:07;;;;;;;29.67;4.68;;;10.00;99.90;;;;;;5073354;28;20071;-56
2023/03/23 07:33:33;;;;;;;25.65;4.20;;;10.00;99.90;;;;;;5070378;28;20454;-56
2023/03/23 07:36:01;;;;;;;24.65;5.25;;;10.50;99.90;;;;;;5072631;28;20105;-56
2023/03/23 07:38:27;;;;;;;26.83;5.30;;;10.90;99.90;;;;;;5072040;28;20540;-57
2023/03/23 07:40:53;;;;;;;25.33;4.40;;;11.40;99.90;;;;;;5072750;28;20040;-56
2023/03/23 07:43:20;;;;;;;31.20;5.18;;;12.00;99.90;;;;;;5071801;28;20066;-56
2023/03/23 07:45:46;;;;;;;19.30;4.22;;;12.10;99.90;;;;;;5071296;28;20044;-56
2023/03/23 07:48:12;;;;;;;28.02;4.63;;;12.20;99.90;;;;;;5071117;28;20148;-57
2023/03/23 07:50:38;;;;;;;29.40;5.53;;;11.90;99.90;;;;;;5071913;28;20040;-56
2023/03/23 07:53:04;;;;;;;26.15;4.47;;;12.00;99.90;;;;;;5070275;28;20400;-56
2023/03/23 07:55:30;;;;;;;23.77;4.10;;;12.00;99.90;;;;;;5070930;28;20286;-57
2023/03/23 07:57:56;;;;;;;24.20;4.43;;;11.70;99.90;;;;;;5072933;28;20048;-57
2023/03/23 08:00:23;;;;;;;27.80;4.95;;;12.00;99.90;;;;;;5071755;28;20048;-57
2023/03/23 08:02:56;;;;;;;28.27;5.35;;;11.90;99.90;;;;;;5070725;28;20040;-57
2023/03/23 08:05:21;;;;;;;;;;;11.70;99.90;;;;;;5071439;28;20040;-57
2023/03/23 08:07:48;;;;;;;26.30;4.65;;;11.60;99.90;;;;;;5071533;28;19930;-56
2023/03/23 08:10:16;;;;;;;25.65;3.92;;;11.50;99.90;;;;;;5072180;28;20454;-57
2023/03/23 08:12:43;;;;;;;29.75;5.32;;;11.40;99.90;;;;;;5071491;28;20036;-57
2023/03/23 08:15:14;;;;;;;22.98;5.03;;;11.60;99.90;;;;;;5070962;28;20703;-57
2023/03/23 08:17:41;;;;;;;22.48;4.85;;;11.50;99.90;;;;;;5071806;28;20043;-56
2023/03/23 08:20:12;;;;;;;26.38;5.65;;;11.80;99.90;;;;;;5072229;28;20447;-57
2023/03/23 08:22:42;;;;;;;22.90;4.47;;;11.50;99.90;;;;;;5076084;28;20040;-57
2023/03/23 08:25:10;;;;;;;25.35;4.70;;;11.80;99.90;;;;;;5074480;28;20093;-57
2023/03/23 08:27:37;;;;;;;24.77;4.53;;;11.70;99.90;;;;;;5077083;28;20036;-57
2023/03/23 08:30:05;;;;;;;24.25;4.78;;;11.40;99.90;;;;;;5074714;28;20714;-57
2023/03/23 08:32:31;;;;;;;30.13;5.03;;;11.30;99.90;;;;;;5075416;28;20048;-57
2023/03/23 08:34:57;;;;;;;23.58;5.03;;;11.40;99.90;;;;;;5074472;28;20036;-57
2023/03/23 08:37:23;;;;;;;27.48;5.60;;;11.70;99.90;;;;;;5075529;28;20048;-57
2023/03/23 08:39:54;;;;;;;22.17;4.25;;;11.80;99.90;;;;;;5076606;28;20361;-57
2023/03/23 08:42:20;;;;;;;30.13;5.55;;;11.80;99.90;;;;;;5077341;28;20392;-57
2023/03/23 08:44:45;;;;;;;25.65;4.55;;;11.90;99.90;;;;;;5076155;28;20051;-57
2023/03/23 08:47:11;;;;;;;25.45;4.97;;;12.10;99.90;;;;;;5076620;28;20576;-57
2023/03/23 08:49:37;;;;;;;26.88;4.75;;;12.20;99.90;;;;;;5076257;28;20199;-57
2023/03/23 08:52:03;;;;;;;26.70;5.78;;;12.10;99.90;;;;;;5076533;28;20048;-57
2023/03/23 08:54:31;;;;;;;28.88;4.85;;;12.20;99.90;;;;;;5075920;28;20039;-57
2023/03/23 08:57:00;;;;;;;28.00;4.80;;;12.40;99.90;;;;;;5076881;28;20500;-57
2023/03/23 08:59:26;;;;;;;33.72;5.85;;;12.80;99.90;;;;;;5076012;28;25482;-58
2023/03/23 09:01:52;;;;;;;30.95;5.47;;;13.30;99.90;;;;;;5076650;28;20064;-57
2023/03/23 09:04:18;;;;;;;31.70;7.22;;;13.40;99.90;;;;;;5075101;28;20576;-57
2023/03/23 09:06:45;;;;;;;32.60;5.88;;;13.60;99.90;;;;;;5074586;28;20082;-57
2023/03/23 09:09:12;;;;;;;33.20;6.63;;;13.70;99.90;;;;;;5075419;28;20118;-57
2023/03/23 09:11:38;;;;;;;29.25;5.38;;;13.60;99.90;;;;;;5074804;28;20055;-57
2023/03/23 09:14:07;;;;;;;25.65;5.25;;;13.50;99.90;;;;;;5073889;28;20552;-58
2023/03/23 09:16:34;;;;;;;26.08;4.90;;;13.60;99.90;;;;;;5074210;28;20042;-57
2023/03/23 09:19:01;;;;;;;32.60;6.20;;;13.20;99.90;;;;;;5073986;28;20339;-57
2023/03/23 09:21:28;;;;;;;25.73;4.80;;;12.80;99.90;;;;;;5075316;28;20043;-57
2023/03/23 09:23:58;;;;;;;27.08;5.07;;;12.50;99.90;;;;;;5075076;28;20051;-58
2023/03/23 09:26:25;;;;;;;28.67;4.85;;;12.50;99.90;;;;;;5075591;28;20135;-57
2023/03/23 09:28:51;;;;;;;29.55;4.97;;;12.40;99.90;;;;;;5074388;28;20408;-58
2023/03/23 09:31:20;;;;;;;22.05;5.38;;;12.20;99.90;;;;;;5074273;28;20060;-57
2023/03/23 09:33:46;;;;;;;25.67;5.40;;;12.00;99.90;;;;;;5072251;28;20075;-57
2023/03/23 09:36:14;;;;;;;27.17;5.30;;;12.50;99.90;;;;;;5074038;28;20461;-57
2023/03/23 09:38:41;;;;;;;26.63;6.22;;;13.10;99.90;;;;;;5075213;28;20508;-57
2023/03/23 09:41:31;;;;;;;32.25;5.55;;;14.10;99.90;;;;;;5074406;28;20110;-57
2023/03/23 09:44:10;;;;;;;23.75;4.85;;;14.90;99.90;;;;;;5074480;28;20044;-57
2023/03/23 09:46:45;;;;;;;30.95;5.18;;;15.50;99.90;;;;;;5073577;28;20036;-57
2023/03/23 09:49:26;;;;;;;25.13;4.43;;;16.40;99.90;;;;;;5073138;28;20047;-57
2023/03/23 09:51:54;;;;;;;25.47;6.23;;;17.30;99.90;;;;;;5074486;28;20630;-57
2023/03/23 09:54:31;;;;;;;23.67;5.13;;;16.50;99.90;;;;;;5075965;28;20044;-57
2023/03/23 09:56:59;;;;;;;23.55;4.65;;;16.10;99.90;;;;;;5075224;28;20063;-57
2023/03/23 09:59:40;;;;;;;25.65;5.13;;;15.60;99.90;;;;;;5074396;28;20048;-56
2023/03/23 10:02:40;;;;;;;24.33;5.57;;;15.10;99.90;;;;;;5074559;28;20059;-56
2023/03/23 10:05:30;;;;;;;20.40;3.55;;;14.60;99.90;;;;;;5053417;28;20044;-56
2023/03/23 10:07:56;;;;;;;25.60;4.93;;;14.50;99.90;;;;;;5074400;28;20044;-57
2023/03/23 10:10:29;;;;;;;23.08;4.03;;;14.40;99.90;;;;;;5074343;28;20126;-57
2023/03/23 10:13:04;;;;;;;24.77;4.75;;;14.40;99.90;;;;;;5073561;28;20063;-57
2023/03/23 10:15:35;;;;;;;23.38;4.60;;;14.50;99.90;;;;;;5074087;28;20439;-57
2023/03/23 10:18:13;;;;;;;27.87;4.13;;;12.80;99.90;;;;;;5074042;28;20127;-57
2023/03/23 10:20:47;;;;;;;27.42;5.55;;;14.50;99.90;;;;;;5073927;28;20036;-57
2023/03/23 10:23:20;;;;;;;32.67;4.78;;;14.40;99.90;;;;;;5073637;28;20480;-57
2023/03/23 10:25:55;;;;;;;25.90;4.88;;;14.20;99.90;;;;;;5072787;28;20474;-56
2023/03/23 10:28:45;;;;;;;22.50;4.70;;;14.10;99.90;;;;;;5072883;28;20460;-56
2023/03/23 10:31:23;;;;;;;19.27;3.85;;;13.70;99.90;;;;;;5086993;28;20611;-57
2023/03/23 10:33:55;;;;;;;20.58;4.68;;;13.40;99.90;;;;;;5073224;28;20075;-56
2023/03/23 10:36:31;;;;;;;21.83;4.43;;;13.00;99.90;;;;;;5072863;28;20409;-56
2023/03/23 10:39:21;;;;;;;17.25;3.65;;;14.50;99.90;;;;;;5072048;28;20163;-57
2023/03/23 10:41:47;;;;;;;24.05;4.78;;;12.90;99.90;;;;;;5072558;28;20044;-57
2023/03/23 10:44:21;;;;;;;21.15;4.85;;;12.80;99.90;;;;;;5072010;28;20527;-57
2023/03/23 10:46:58;;;;;;;26.27;4.32;;;12.70;99.90;;;;;;5072994;28;20085;-57
2023/03/23 10:49:28;;;;;;;26.05;4.22;;;12.50;99.90;;;;;;5072330;28;20048;-56
2023/03/23 10:52:10;;;;;;;22.08;5.00;;;12.50;99.90;;;;;;5072720;28;20043;-57
2023/03/23 10:54:46;;;;;;;23.48;4.57;;;12.40;99.90;;;;;;5072554;28;20145;-57
2023/03/23 10:57:24;;;;;;;25.45;4.93;;;12.40;99.90;;;;;;5073230;28;20056;-57
2023/03/23 10:59:50;;;;;;;21.10;3.75;;;12.90;99.90;;;;;;5073319;28;20050;-57
2023/03/23 11:02:24;;;;;;;21.35;4.53;;;12.80;99.90;;;;;;5072045;28;20701;-57
2023/03/23 11:05:00;;;;;;;20.25;4.70;;;13.20;99.90;;;;;;5072822;28;20048;-57
2023/03/23 11:07:29;;;;;;;22.65;4.28;;;13.30;99.90;;;;;;5072767;28;20040;-57
2023/03/23 11:10:03;;;;;;;23.85;5.13;;;13.30;99.90;;;;;;5072933;28;20051;-56
2023/03/23 11:12:33;;;;;;;20.40;3.70;;;13.50;99.90;;;;;;5072528;28;20783;-57
2023/03/23 11:15:15;;;;;;;24.35;4.78;;;13.60;99.90;;;;;;5072704;28;20047;-57
2023/03/23 11:17:41;;;;;;;;;;;14.10;99.90;;;;;;5074039;28;20036;-56
2023/03/23 11:20:12;;;;;;;20.27;4.20;;;14.70;99.90;;;;;;5072038;28;19935;-57
2023/03/23 11:22:37;;;;;;;17.38;3.17;;;14.60;99.90;;;;;;5072689;28;20047;-57
2023/03/23 11:25:05;;;;;;;20.20;3.92;;;14.70;99.90;;;;;;5072290;28;20044;-57
2023/03/23 11:27:32;;;;;;;21.02;4.28;;;15.00;99.90;;;;;;5073642;28;20052;-58
2023/03/23 11:30:18;;;;;;;17.45;2.92;;;14.80;99.90;;;;;;5071659;28;20036;-57
2023/03/23 11:32:45;;;;;;;20.67;3.97;;;14.70;99.90;;;;;;5072952;28;20040;-57
2023/03/23 11:35:23;;;;;;;19.98;3.33;;;14.70;99.90;;;;;;5072054;28;20036;-57
2023/03/23 11:37:57;;;;;;;16.17;3.28;;;14.40;99.90;;;;;;5072057;28;20048;-56
2023/03/23 11:40:31;;;;;;;16.40;3.17;;;14.70;99.90;;;;;;5071648;28;20044;-57
2023/03/23 11:43:07;;;;;;;17.02;2.95;;;14.80;99.90;;;;;;5071166;28;20512;-57
2023/03/23 11:45:39;;;;;;;20.17;3.95;;;14.70;99.90;;;;;;5071923;28;20059;-57
2023/03/23 11:48:42;;;;;;;17.25;4.03;;;14.70;99.90;;;;;;5070796;28;20131;-57
2023/03/23 11:51:20;;;;;;;18.45;3.15;;;15.00;99.90;;;;;;5071317;28;20036;-57
2023/03/23 11:53:52;;;;;;;16.13;3.30;;;15.10;99.90;;;;;;5072580;28;20116;-57
2023/03/23 11:56:34;;;;;;;13.25;3.47;;;15.10;99.90;;;;;;5074214;28;20809;-57
2023/03/23 11:59:02;;;;;;;16.13;3.65;;;15.10;99.90;;;;;;5076475;28;20067;-57
2023/03/23 12:01:53;;;;;;;12.50;2.83;;;15.30;99.90;;;;;;5075834;28;20667;-57
2023/03/23 12:04:35;;;;;;;16.50;3.75;;;15.30;99.90;;;;;;5075353;28;20036;-57
2023/03/23 12:07:14;;;;;;;21.50;3.75;;;15.20;99.90;;;;;;5076118;28;20047;-57
2023/03/23 12:10:05;;;;;;;13.27;3.25;;;15.20;99.90;;;;;;5075206;28;20044;-56
2023/03/23 12:12:51;;;;;;;12.30;3.05;;;15.10;99.90;;;;;;5075066;28;20427;-57
2023/03/23 12:15:31;;;;;;;14.02;3.17;;;15.20;99.90;;;;;;5075451;28;23611;-57
2023/03/23 12:18:21;;;;;;;16.60;3.67;;;15.20;99.90;;;;;;5076600;28;20141;-56
2023/03/23 12:21:02;;;;;;;16.40;2.90;;;15.00;99.90;;;;;;5076245;28;20122;-57
2023/03/23 12:23:56;;;;;;;20.35;3.13;;;15.10;99.90;;;;;;5076615;28;20109;-57
2023/03/23 12:26:31;;;;;;;19.20;3.47;;;14.90;99.90;;;;;;5076150;28;20525;-56
2023/03/23 12:29:22;;;;;;;14.98;2.75;;;14.80;99.90;;;;;;5075410;28;20044;-55
2023/03/23 12:31:57;;;;;;;15.10;2.87;;;14.50;99.90;;;;;;5075515;28;20048;-57
2023/03/23 12:34:41;;;;;;;18.00;3.20;;;14.30;99.90;;;;;;5076673;28;20036;-57
2023/03/23 12:37:49;;;;;;;14.50;2.83;;;14.60;99.90;;;;;;5075727;28;20066;-56
2023/03/23 12:40:30;;;;;;;19.13;3.35;;;14.80;99.90;;;;;;5066878;28;20040;-56
2023/03/23 12:43:30;;;;;;;14.88;4.20;;;14.70;99.90;;;;;;5076203;28;20161;-57
2023/03/23 12:45:56;;;;;;;15.65;2.90;;;14.40;99.90;;;;;;5075051;28;20530;-57
2023/03/23 12:48:33;;;;;;;15.00;2.88;;;14.10;99.90;;;;;;5075704;28;20040;-57
2023/03/23 12:51:06;;;;;;;15.15;2.80;;;13.90;99.90;;;;;;5075634;28;20062;-57
2023/03/23 12:54:09;;;;;;;18.63;3.47;;;14.00;99.90;;;;;;5076975;28;20107;-58
2023/03/23 12:56:44;;;;;;;16.75;5.47;;;14.10;99.90;;;;;;5074373;28;20032;-57
2023/03/23 12:59:47;;;;;;;27.55;5.30;;;14.10;99.90;;;;;;5076899;28;20055;-57